createdAt,value
2022-10-02T09:29:46.039Z,94616.88
2022-10-02T09:33:07.689Z,94609.53
2022-10-02T09:36:31.018Z,94622.53
2022-10-02T09:39:52.306Z,94617.53
2022-10-02T09:43:04.048Z,94625.25
2022-10-02T09:46:28.336Z,94637.75
2022-10-02T09:49:44.127Z,94639.94
2022-10-02T09:53:10.777Z,94647.28
2022-10-02T09:56:41.156Z,94651.28
2022-10-02T10:00:05.838Z,94642.09
2022-10-02T10:03:38.406Z,94647.53
2022-10-02T10:06:57.102Z,94650.44
2022-10-02T10:10:25.174Z,94656.59
2022-10-02T10:13:47.417Z,94663.13
2022-10-02T10:17:19.676Z,94672.13
2022-10-02T10:20:37.486Z,94668.41
2022-10-02T10:24:08.988Z,94678.25
2022-10-02T10:27:43.601Z,94676.75
2022-10-02T10:31:10.601Z,94680.75
2022-10-02T10:34:46.700Z,94686.66
2022-10-02T10:38:23.886Z,94690.34
2022-10-02T10:42:15.743Z,94688.53
2022-10-02T10:45:49.780Z,94701.00
2022-10-02T10:49:10.626Z,94698.47
2022-10-02T10:52:28.974Z,94701.84
2022-10-02T10:55:55.319Z,94706.59
2022-10-02T10:59:25.625Z,94714.56
2022-10-02T11:02:55.339Z,94721.13
2022-10-02T11:06:16.675Z,94721.19
2022-10-02T11:09:55.674Z,94716.09
2022-10-02T11:13:10.432Z,94716.75
2022-10-02T11:16:18.312Z,94722.53
2022-10-02T11:19:41.725Z,94729.41
2022-10-02T11:23:10.280Z,94728.59
2022-10-02T11:26:27.105Z,94740.56
2022-10-02T11:29:35.475Z,94746.41
2022-10-02T11:32:42.699Z,94734.69
2022-10-02T11:36:27.256Z,94739.03
2022-10-02T11:39:43.739Z,94743.66
2022-10-02T11:42:50.979Z,94750.81
2022-10-02T11:46:37.747Z,94764.00
2022-10-02T11:49:52.293Z,94763.25
2022-10-02T11:53:19.492Z,94768.63
2022-10-02T11:56:25.999Z,94770.69
2022-10-02T12:00:09.161Z,94775.78
2022-10-02T12:03:44.011Z,94778.66
2022-10-02T12:07:11.157Z,94778.97
2022-10-02T12:10:34.665Z,94782.50
2022-10-02T12:14:00.636Z,94785.19
2022-10-02T12:17:41.027Z,94780.69
2022-10-02T12:22:00.893Z,94784.69
2022-10-02T12:25:44.470Z,94785.28
2022-10-02T12:29:20.177Z,94792.19
2022-10-02T12:32:36.989Z,94801.66
2022-10-02T12:35:59.547Z,94800.47
2022-10-02T12:39:22.178Z,94812.47
2022-10-02T12:43:06.866Z,94816.50
2022-10-02T12:46:58.013Z,94819.91
2022-10-02T12:50:05.299Z,94824.28
2022-10-02T12:53:26.983Z,94826.78
2022-10-02T12:57:05.651Z,94825.03
2022-10-02T13:00:17.658Z,94818.13
2022-10-02T13:03:57.127Z,94825.91
2022-10-02T13:07:42.865Z,94824.84
2022-10-02T13:10:58.610Z,94823.53
2022-10-02T13:14:18.976Z,94818.50
2022-10-02T13:17:37.423Z,94819.63
2022-10-02T13:20:46.130Z,94820.72
2022-10-02T13:24:15.092Z,94822.06
2022-10-02T13:27:19.542Z,94828.38
2022-10-02T13:30:24.723Z,94828.88
2022-10-02T13:33:58.400Z,94837.84
2022-10-02T13:37:19.392Z,94833.34
2022-10-02T13:40:45.448Z,94829.13
2022-10-02T13:43:58.366Z,94843.78
2022-10-02T13:47:36.052Z,94836.69
2022-10-02T13:50:48.375Z,94844.81
2022-10-02T13:54:33.573Z,94855.78
2022-10-02T13:58:02.016Z,94855.47
2022-10-02T14:01:20.207Z,94856.38
2022-10-02T14:04:38.774Z,94865.25
2022-10-02T14:08:04.615Z,94860.97
2022-10-02T14:11:18.589Z,94863.84
2022-10-02T14:14:31.640Z,94867.31
2022-10-02T14:17:37.928Z,94869.41
2022-10-02T14:21:00.645Z,94874.91
2022-10-02T14:24:51.171Z,94872.56
2022-10-02T14:28:20.001Z,94869.06
2022-10-02T14:31:47.858Z,94875.78
2022-10-02T14:34:56.279Z,94875.78
2022-10-02T14:38:05.090Z,94857.84
2022-10-02T14:41:30.029Z,94861.03
2022-10-02T14:45:11.822Z,94858.94
2022-10-02T14:48:29.436Z,94860.41
2022-10-02T14:51:52.751Z,94869.13
2022-10-02T14:55:10.956Z,94878.53
2022-10-02T14:58:27.707Z,94874.78
2022-10-02T15:01:31.901Z,94877.88
2022-10-02T15:04:47.859Z,94871.69
2022-10-02T15:07:53.106Z,94871.66
2022-10-02T15:10:57.717Z,94881.13
2022-10-02T15:14:08.793Z,94884.44
2022-10-02T15:17:44.154Z,94890.03
2022-10-02T15:21:01.078Z,94892.72
2022-10-02T15:24:26.538Z,94899.88
2022-10-02T15:27:40.466Z,94900.16
2022-10-02T15:31:00.270Z,94900.50
2022-10-02T15:34:16.016Z,94903.84
2022-10-02T15:37:37.984Z,94905.31
2022-10-02T15:40:50.479Z,94909.63
2022-10-02T15:44:01.660Z,94906.81
2022-10-02T15:47:10.745Z,94912.63
2022-10-02T15:50:39.120Z,94907.47
2022-10-02T15:54:19.204Z,94911.84
2022-10-02T15:57:39.839Z,94920.97
2022-10-02T16:01:01.943Z,94918.69
2022-10-02T16:04:13.009Z,94915.59
2022-10-02T16:07:37.417Z,94922.44
2022-10-02T16:10:59.300Z,94924.47
2022-10-02T16:14:16.254Z,94920.09
2022-10-02T16:17:30.477Z,94931.75
2022-10-02T16:21:13.169Z,94927.44
2022-10-02T16:24:42.115Z,94931.34
2022-10-02T16:27:54.151Z,94935.81
2022-10-02T16:31:23.361Z,94942.75
2022-10-02T16:34:39.121Z,94939.81
2022-10-02T16:37:42.392Z,94944.94
2022-10-02T16:40:57.465Z,94944.31
2022-10-02T16:44:39.494Z,94950.63
2022-10-02T16:48:12.635Z,94952.84
2022-10-02T16:51:29.855Z,94949.31
2022-10-02T16:54:58.808Z,94945.53
2022-10-02T16:58:22.500Z,94952.25
2022-10-02T17:01:36.431Z,94955.19
2022-10-02T17:05:01.719Z,94957.88
2022-10-02T17:08:32.734Z,94950.50
2022-10-02T17:11:58.490Z,94956.28
2022-10-02T17:15:23.257Z,94956.41
2022-10-02T17:18:27.326Z,94959.69
2022-10-02T17:21:41.953Z,94964.22
2022-10-02T17:25:27.878Z,94962.75
2022-10-02T17:28:58.129Z,94969.03
2022-10-02T17:32:02.496Z,94969.38
2022-10-02T17:35:17.445Z,94968.25
2022-10-02T17:38:36.592Z,94962.00
2022-10-02T17:41:47.691Z,94968.75
2022-10-02T17:45:29.344Z,94965.69
2022-10-02T17:48:39.440Z,94969.66
2022-10-02T17:52:20.459Z,94978.00
2022-10-02T17:56:06.479Z,94981.28
2022-10-02T17:59:41.090Z,94971.50
2022-10-02T18:03:10.578Z,94974.78
2022-10-02T18:06:53.045Z,94981.28
2022-10-02T18:10:14.881Z,94986.66
2022-10-02T18:13:34.061Z,94986.78
2022-10-02T18:17:03.085Z,94980.88
2022-10-02T18:20:20.199Z,94986.31
2022-10-02T18:23:36.528Z,94989.31
2022-10-02T18:26:58.789Z,94988.97
2022-10-02T18:30:13.726Z,94996.13
2022-10-02T18:33:38.698Z,94997.94
2022-10-02T18:37:03.382Z,95000.25
2022-10-02T18:40:31.706Z,95003.78
2022-10-02T18:43:56.180Z,94998.69
2022-10-02T18:47:24.053Z,95000.97
2022-10-02T18:50:37.586Z,95000.91
2022-10-02T18:54:03.413Z,95001.22
2022-10-02T18:57:09.030Z,94997.63
2022-10-02T19:00:19.198Z,94995.13
2022-10-02T19:03:51.900Z,94998.03
2022-10-02T19:07:20.045Z,95011.91
2022-10-02T19:10:30.121Z,95006.75
2022-10-02T19:13:39.840Z,95019.50
2022-10-02T19:16:58.484Z,95019.69
2022-10-02T19:20:25.514Z,95027.66
2022-10-02T19:23:29.134Z,95022.41
2022-10-02T19:26:36.022Z,95025.84
2022-10-02T19:29:49.451Z,95035.41
2022-10-02T19:32:56.602Z,95033.34
2022-10-02T19:36:06.527Z,95032.69
2022-10-02T19:39:20.976Z,95032.75
2022-10-02T19:42:30.604Z,95032.50
2022-10-02T19:45:36.514Z,95029.28
2022-10-02T19:48:40.116Z,95030.38
2022-10-02T19:51:45.597Z,95035.00
2022-10-02T19:54:48.668Z,95041.25
2022-10-02T19:57:58.305Z,95035.66
2022-10-02T20:01:01.835Z,95039.25
2022-10-02T20:04:06.990Z,95038.88
2022-10-02T20:07:19.360Z,95044.69
2022-10-02T20:11:03.455Z,95044.69
2022-10-02T20:14:11.307Z,95043.91
2022-10-02T20:17:18.632Z,95049.97
2022-10-02T20:20:21.896Z,95052.19
2022-10-02T20:23:30.704Z,95060.75
2022-10-02T20:26:38.466Z,95065.66
2022-10-02T20:29:47.600Z,95060.41
2022-10-02T20:33:15.755Z,95065.28
2022-10-02T20:36:26.580Z,95062.66
2022-10-02T20:39:36.230Z,95067.97
2022-10-02T20:43:10.965Z,95069.94
2022-10-02T20:46:41.546Z,95084.53
2022-10-02T20:50:03.997Z,95078.50
2022-10-02T20:53:36.627Z,95086.34
2022-10-02T20:57:04.896Z,95088.28
2022-10-02T21:00:17.426Z,95087.44
2022-10-02T21:03:38.724Z,95093.16
2022-10-02T21:07:06.912Z,95095.06
2022-10-02T21:10:42.893Z,95092.09
2022-10-02T21:14:17.004Z,95093.28
2022-10-02T21:18:01.837Z,95099.53
2022-10-02T21:21:36.944Z,95099.66
2022-10-02T21:24:45.899Z,95102.50
2022-10-02T21:28:26.342Z,95104.63
2022-10-02T21:31:44.243Z,95112.34
2022-10-02T21:35:05.753Z,95115.97
2022-10-02T21:38:30.986Z,95120.19
2022-10-02T21:41:55.841Z,95118.91
2022-10-02T21:45:25.257Z,95119.53
2022-10-02T21:48:56.584Z,95119.84
2022-10-02T21:52:28.826Z,95118.28
2022-10-02T21:55:44.564Z,95115.31
2022-10-02T21:59:04.143Z,95120.91
2022-10-02T22:02:19.322Z,95127.16
2022-10-02T22:05:34.845Z,95122.16
2022-10-02T22:09:00.275Z,95123.56
2022-10-02T22:12:15.535Z,95132.75
2022-10-02T22:15:23.085Z,95129.88
2022-10-02T22:18:48.143Z,95130.50
2022-10-02T22:22:09.096Z,95126.25
2022-10-02T22:25:31.857Z,95137.13
2022-10-02T22:28:53.402Z,95136.75
2022-10-02T22:32:23.880Z,95142.75
2022-10-02T22:35:27.154Z,95136.59
2022-10-02T22:38:44.834Z,95138.38
2022-10-02T22:41:54.579Z,95141.84
2022-10-02T22:45:33.068Z,95147.13
2022-10-02T22:48:38.614Z,95142.91
2022-10-02T22:51:51.899Z,95146.63
2022-10-02T22:55:06.372Z,95157.31
2022-10-02T22:58:17.048Z,95147.50
2022-10-02T23:01:23.592Z,95157.28
2022-10-02T23:04:40.883Z,95162.84
2022-10-02T23:08:03.057Z,95167.84
2022-10-02T23:11:20.272Z,95169.84
2022-10-02T23:14:48.500Z,95161.31
2022-10-02T23:18:04.167Z,95166.94
2022-10-02T23:21:24.164Z,95168.53
2022-10-02T23:24:38.001Z,95169.91
2022-10-02T23:28:09.587Z,95181.78
2022-10-02T23:31:15.380Z,95185.00
2022-10-02T23:34:32.880Z,95192.03
2022-10-02T23:37:44.543Z,95195.75
2022-10-02T23:41:37.448Z,95201.56
2022-10-02T23:44:50.706Z,95199.88
2022-10-02T23:48:03.549Z,95202.22
2022-10-02T23:51:33.292Z,95204.25
2022-10-02T23:54:40.405Z,95210.41
2022-10-02T23:57:52.351Z,95214.75
